sensor_id;sensor_type;location;lat;lon;timestamp;P1;durP1;ratioP1;P2;durP2;ratioP2
13408;SDS011;6775;49.574;11.170;2023-06-10T00:01:56;4.80;;;4.40;;
13408;SDS011;6775;49.574;11.170;2023-06-10T00:04:26;4.67;;;4.17;;
13408;SDS011;6775;49.574;11.170;2023-06-10T00:06:54;4.93;;;4.23;;
13408;SDS011;6775;49.574;11.170;2023-06-10T00:09:23;6.17;;;4.47;;
13408;SDS011;6775;49.574;11.170;2023-06-10T00:11:51;4.83;;;4.43;;
13408;SDS011;6775;49.574;11.170;2023-06-10T00:14:19;5.13;;;4.60;;
13408;SDS011;6775;49.574;11.170;2023-06-10T00:16:49;5.00;;;4.57;;
13408;SDS011;6775;49.574;11.170;2023-06-10T00:19:18;4.47;;;4.07;;
13408;SDS011;6775;49.574;11.170;2023-06-10T00:21:51;4.80;;;4.30;;
13408;SDS011;6775;49.574;11.170;2023-06-10T00:24:19;5.33;;;4.90;;
13408;SDS011;6775;49.574;11.170;2023-06-10T00:26:48;5.13;;;4.70;;
13408;SDS011;6775;49.574;11.170;2023-06-10T00:29:16;6.23;;;5.20;;
13408;SDS011;6775;49.574;11.170;2023-06-10T00:31:44;5.90;;;5.30;;
13408;SDS011;6775;49.574;11.170;2023-06-10T00:34:14;5.90;;;5.30;;
13408;SDS011;6775;49.574;11.170;2023-06-10T00:36:42;5.13;;;4.63;;
13408;SDS011;6775;49.574;11.170;2023-06-10T00:39:10;5.90;;;5.10;;
13408;SDS011;6775;49.574;11.170;2023-06-10T00:41:38;4.80;;;4.40;;
13408;SDS011;6775;49.574;11.170;2023-06-10T00:44:06;5.87;;;5.23;;
13408;SDS011;6775;49.574;11.170;2023-06-10T00:46:34;5.30;;;4.73;;
13408;SDS011;6775;49.574;11.170;2023-06-10T00:49:03;5.17;;;4.67;;
13408;SDS011;6775;49.574;11.170;2023-06-10T00:51:33;4.97;;;4.47;;
13408;SDS011;6775;49.574;11.170;2023-06-10T00:54:02;5.60;;;5.10;;
13408;SDS011;6775;49.574;11.170;2023-06-10T00:56:31;5.50;;;5.00;;
13408;SDS011;6775;49.574;11.170;2023-06-10T00:59:01;5.10;;;4.67;;
13408;SDS011;6775;49.574;11.170;2023-06-10T01:01:29;6.97;;;4.97;;
13408;SDS011;6775;49.574;11.170;2023-06-10T01:03:58;6.07;;;4.77;;
13408;SDS011;6775;49.574;11.170;2023-06-10T01:06:28;5.10;;;4.70;;
13408;SDS011;6775;49.574;11.170;2023-06-10T01:09:06;5.07;;;4.67;;
13408;SDS011;6775;49.574;11.170;2023-06-10T01:11:43;5.07;;;4.57;;
13408;SDS011;6775;49.574;11.170;2023-06-10T01:14:14;5.33;;;4.83;;
13408;SDS011;6775;49.574;11.170;2023-06-10T01:16:44;5.50;;;4.57;;
13408;SDS011;6775;49.574;11.170;2023-06-10T01:19:12;4.93;;;4.53;;
13408;SDS011;6775;49.574;11.170;2023-06-10T01:21:42;5.70;;;5.13;;
13408;SDS011;6775;49.574;11.170;2023-06-10T01:24:15;5.47;;;4.93;;
13408;SDS011;6775;49.574;11.170;2023-06-10T01:26:44;5.50;;;4.73;;
13408;SDS011;6775;49.574;11.170;2023-06-10T01:29:17;5.33;;;4.83;;
13408;SDS011;6775;49.574;11.170;2023-06-10T01:31:48;5.57;;;4.80;;
13408;SDS011;6775;49.574;11.170;2023-06-10T01:34:18;5.87;;;4.77;;
13408;SDS011;6775;49.574;11.170;2023-06-10T01:36:49;5.40;;;4.60;;
13408;SDS011;6775;49.574;11.170;2023-06-10T01:39:18;5.20;;;4.70;;
13408;SDS011;6775;49.574;11.170;2023-06-10T01:41:50;5.10;;;4.60;;
13408;SDS011;6775;49.574;11.170;2023-06-10T01:44:19;5.37;;;4.87;;
13408;SDS011;6775;49.574;11.170;2023-06-10T01:46:47;5.10;;;4.60;;
13408;SDS011;6775;49.574;11.170;2023-06-10T01:49:20;5.03;;;4.53;;
13408;SDS011;6775;49.574;11.170;2023-06-10T01:51:51;5.77;;;4.87;;
13408;SDS011;6775;49.574;11.170;2023-06-10T01:54:19;6.27;;;5.13;;
13408;SDS011;6775;49.574;11.170;2023-06-10T01:56:47;5.37;;;4.77;;
13408;SDS011;6775;49.574;11.170;2023-06-10T01:59:15;5.67;;;5.17;;
13408;SDS011;6775;49.574;11.170;2023-06-10T02:01:43;5.97;;;5.00;;
13408;SDS011;6775;49.574;11.170;2023-06-10T02:04:11;6.40;;;5.07;;
13408;SDS011;6775;49.574;11.170;2023-06-10T02:06:39;5.90;;;5.30;;
13408;SDS011;6775;49.574;11.170;2023-06-10T02:09:09;5.47;;;4.90;;
13408;SDS011;6775;49.574;11.170;2023-06-10T02:11:37;6.43;;;5.30;;
13408;SDS011;6775;49.574;11.170;2023-06-10T02:14:05;6.03;;;5.23;;
13408;SDS011;6775;49.574;11.170;2023-06-10T02:16:33;5.53;;;5.03;;
13408;SDS011;6775;49.574;11.170;2023-06-10T02:19:01;5.27;;;4.67;;
13408;SDS011;6775;49.574;11.170;2023-06-10T02:21:29;6.67;;;5.20;;
13408;SDS011;6775;49.574;11.170;2023-06-10T02:23:57;5.83;;;4.70;;
13408;SDS011;6775;49.574;11.170;2023-06-10T02:26:26;6.03;;;4.87;;
13408;SDS011;6775;49.574;11.170;2023-06-10T02:28:54;5.60;;;5.10;;
13408;SDS011;6775;49.574;11.170;2023-06-10T02:31:22;5.50;;;5.00;;
13408;SDS011;6775;49.574;11.170;2023-06-10T02:33:51;5.97;;;5.17;;
13408;SDS011;6775;49.574;11.170;2023-06-10T02:36:19;6.23;;;5.60;;
13408;SDS011;6775;49.574;11.170;2023-06-10T02:38:48;6.00;;;5.40;;
13408;SDS011;6775;49.574;11.170;2023-06-10T02:41:16;5.50;;;5.00;;
13408;SDS011;6775;49.574;11.170;2023-06-10T02:43:45;5.40;;;4.90;;
13408;SDS011;6775;49.574;11.170;2023-06-10T02:46:13;5.70;;;4.93;;
13408;SDS011;6775;49.574;11.170;2023-06-10T02:48:41;6.13;;;5.20;;
13408;SDS011;6775;49.574;11.170;2023-06-10T02:51:10;5.43;;;4.90;;
13408;SDS011;6775;49.574;11.170;2023-06-10T02:53:38;6.47;;;5.10;;
13408;SDS011;6775;49.574;11.170;2023-06-10T02:56:06;5.80;;;5.30;;
13408;SDS011;6775;49.574;11.170;2023-06-10T02:58:34;5.77;;;5.23;;
13408;SDS011;6775;49.574;11.170;2023-06-10T03:01:04;5.40;;;4.90;;
13408;SDS011;6775;49.574;11.170;2023-06-10T03:03:33;6.83;;;4.83;;
13408;SDS011;6775;49.574;11.170;2023-06-10T03:06:03;6.50;;;5.83;;
13408;SDS011;6775;49.574;11.170;2023-06-10T03:08:31;5.97;;;5.37;;
13408;SDS011;6775;49.574;11.170;2023-06-10T03:10:59;6.03;;;5.43;;
13408;SDS011;6775;49.574;11.170;2023-06-10T03:13:27;5.90;;;5.30;;
13408;SDS011;6775;49.574;11.170;2023-06-10T03:15:55;5.87;;;5.10;;
13408;SDS011;6775;49.574;11.170;2023-06-10T03:18:25;6.57;;;5.73;;
13408;SDS011;6775;49.574;11.170;2023-06-10T03:20:55;6.47;;;5.27;;
13408;SDS011;6775;49.574;11.170;2023-06-10T03:23:23;5.53;;;5.00;;
13408;SDS011;6775;49.574;11.170;2023-06-10T03:25:53;6.57;;;5.63;;
13408;SDS011;6775;49.574;11.170;2023-06-10T03:28:21;6.33;;;5.23;;
13408;SDS011;6775;49.574;11.170;2023-06-10T03:30:49;6.33;;;5.43;;
13408;SDS011;6775;49.574;11.170;2023-06-10T03:33:18;6.03;;;4.87;;
13408;SDS011;6775;49.574;11.170;2023-06-10T03:35:47;5.70;;;4.97;;
13408;SDS011;6775;49.574;11.170;2023-06-10T03:38:16;5.07;;;4.57;;
13408;SDS011;6775;49.574;11.170;2023-06-10T03:40:44;5.63;;;5.13;;
13408;SDS011;6775;49.574;11.170;2023-06-10T03:43:12;5.90;;;5.30;;
13408;SDS011;6775;49.574;11.170;2023-06-10T03:45:40;5.53;;;4.27;;
13408;SDS011;6775;49.574;11.170;2023-06-10T03:48:08;7.07;;;5.30;;
13408;SDS011;6775;49.574;11.170;2023-06-10T03:50:37;5.50;;;5.00;;
13408;SDS011;6775;49.574;11.170;2023-06-10T03:53:06;8.10;;;5.80;;
13408;SDS011;6775;49.574;11.170;2023-06-10T03:55:34;6.13;;;5.37;;
13408;SDS011;6775;49.574;11.170;2023-06-10T03:58:02;5.50;;;5.00;;
13408;SDS011;6775;49.574;11.170;2023-06-10T04:00:30;7.70;;;5.63;;
13408;SDS011;6775;49.574;11.170;2023-06-10T04:03:08;6.57;;;5.10;;
13408;SDS011;6775;49.574;11.170;2023-06-10T04:05:41;5.50;;;4.83;;
13408;SDS011;6775;49.574;11.170;2023-06-10T04:08:10;5.77;;;5.13;;
13408;SDS011;6775;49.574;11.170;2023-06-10T04:10:38;6.10;;;5.20;;
13408;SDS011;6775;49.574;11.170;2023-06-10T04:13:06;5.97;;;4.80;;
13408;SDS011;6775;49.574;11.170;2023-06-10T04:15:35;5.30;;;4.80;;
13408;SDS011;6775;49.574;11.170;2023-06-10T04:18:03;5.63;;;4.87;;
13408;SDS011;6775;49.574;11.170;2023-06-10T04:20:31;7.47;;;5.50;;
13408;SDS011;6775;49.574;11.170;2023-06-10T04:22:59;5.57;;;5.07;;
13408;SDS011;6775;49.574;11.170;2023-06-10T04:25:29;5.77;;;5.20;;
13408;SDS011;6775;49.574;11.170;2023-06-10T04:27:57;6.67;;;5.90;;
13408;SDS011;6775;49.574;11.170;2023-06-10T04:30:25;5.50;;;5.00;;
13408;SDS011;6775;49.574;11.170;2023-06-10T04:32:53;5.67;;;5.10;;
13408;SDS011;6775;49.574;11.170;2023-06-10T04:35:21;6.23;;;5.63;;
13408;SDS011;6775;49.574;11.170;2023-06-10T04:37:49;5.57;;;5.07;;
13408;SDS011;6775;49.574;11.170;2023-06-10T04:40:17;5.40;;;4.90;;
13408;SDS011;6775;49.574;11.170;2023-06-10T04:42:47;6.77;;;6.07;;
13408;SDS011;6775;49.574;11.170;2023-06-10T04:45:15;6.73;;;6.03;;
13408;SDS011;6775;49.574;11.170;2023-06-10T04:47:43;6.07;;;5.47;;
13408;SDS011;6775;49.574;11.170;2023-06-10T04:50:11;6.17;;;5.40;;
13408;SDS011;6775;49.574;11.170;2023-06-10T04:52:39;6.70;;;6.10;;
13408;SDS011;6775;49.574;11.170;2023-06-10T04:55:08;5.90;;;5.40;;
13408;SDS011;6775;49.574;11.170;2023-06-10T04:57:37;6.07;;;5.47;;
13408;SDS011;6775;49.574;11.170;2023-06-10T05:00:07;7.27;;;6.57;;
13408;SDS011;6775;49.574;11.170;2023-06-10T05:02:36;7.20;;;5.93;;
13408;SDS011;6775;49.574;11.170;2023-06-10T05:05:04;7.00;;;6.37;;
13408;SDS011;6775;49.574;11.170;2023-06-10T05:07:32;6.97;;;6.30;;
13408;SDS011;6775;49.574;11.170;2023-06-10T05:10:00;7.00;;;6.23;;
13408;SDS011;6775;49.574;11.170;2023-06-10T05:12:29;6.37;;;5.30;;
13408;SDS011;6775;49.574;11.170;2023-06-10T05:14:57;6.07;;;5.57;;
13408;SDS011;6775;49.574;11.170;2023-06-10T05:17:26;6.10;;;5.50;;
13408;SDS011;6775;49.574;11.170;2023-06-10T05:19:55;5.80;;;5.30;;
13408;SDS011;6775;49.574;11.170;2023-06-10T05:22:23;5.30;;;4.80;;
13408;SDS011;6775;49.574;11.170;2023-06-10T05:24:51;5.20;;;4.70;;
13408;SDS011;6775;49.574;11.170;2023-06-10T05:27:19;6.00;;;5.40;;
13408;SDS011;6775;49.574;11.170;2023-06-10T05:29:48;6.53;;;5.83;;
13408;SDS011;6775;49.574;11.170;2023-06-10T05:32:17;5.20;;;4.70;;
13408;SDS011;6775;49.574;11.170;2023-06-10T05:34:47;5.33;;;4.83;;
13408;SDS011;6775;49.574;11.170;2023-06-10T05:37:15;4.80;;;4.40;;
13408;SDS011;6775;49.574;11.170;2023-06-10T05:39:43;5.57;;;5.07;;
13408;SDS011;6775;49.574;11.170;2023-06-10T05:42:11;5.40;;;4.90;;
13408;SDS011;6775;49.574;11.170;2023-06-10T05:44:39;6.37;;;5.50;;
13408;SDS011;6775;49.574;11.170;2023-06-10T05:47:07;6.27;;;5.23;;
13408;SDS011;6775;49.574;11.170;2023-06-10T05:49:35;5.20;;;4.80;;
13408;SDS011;6775;49.574;11.170;2023-06-10T05:52:05;4.63;;;4.23;;
13408;SDS011;6775;49.574;11.170;2023-06-10T05:54:33;4.77;;;4.37;;
13408;SDS011;6775;49.574;11.170;2023-06-10T05:57:01;5.17;;;4.67;;
13408;SDS011;6775;49.574;11.170;2023-06-10T05:59:29;4.40;;;4.00;;
13408;SDS011;6775;49.574;11.170;2023-06-10T06:01:58;4.13;;;3.77;;
13408;SDS011;6775;49.574;11.170;2023-06-10T06:04:26;4.00;;;3.70;;
13408;SDS011;6775;49.574;11.170;2023-06-10T06:06:54;3.60;;;3.30;;
13408;SDS011;6775;49.574;11.170;2023-06-10T06:09:23;3.60;;;3.30;;
13408;SDS011;6775;49.574;11.170;2023-06-10T06:11:51;3.07;;;2.87;;
13408;SDS011;6775;49.574;11.170;2023-06-10T06:14:19;5.17;;;4.77;;
13408;SDS011;6775;49.574;11.170;2023-06-10T06:16:47;3.97;;;3.67;;
13408;SDS011;6775;49.574;11.170;2023-06-10T06:19:15;4.50;;;4.10;;
13408;SDS011;6775;49.574;11.170;2023-06-10T06:21:43;3.87;;;3.57;;
13408;SDS011;6775;49.574;11.170;2023-06-10T06:24:11;4.03;;;3.63;;
13408;SDS011;6775;49.574;11.170;2023-06-10T06:26:41;4.37;;;3.97;;
13408;SDS011;6775;49.574;11.170;2023-06-10T06:29:09;4.27;;;3.97;;
13408;SDS011;6775;49.574;11.170;2023-06-10T06:31:37;5.57;;;4.57;;
13408;SDS011;6775;49.574;11.170;2023-06-10T06:34:05;4.23;;;3.93;;
13408;SDS011;6775;49.574;11.170;2023-06-10T06:36:33;4.30;;;3.90;;
13408;SDS011;6775;49.574;11.170;2023-06-10T06:39:01;4.30;;;4.00;;
13408;SDS011;6775;49.574;11.170;2023-06-10T06:41:29;4.20;;;3.80;;
13408;SDS011;6775;49.574;11.170;2023-06-10T06:43:58;4.77;;;4.37;;
13408;SDS011;6775;49.574;11.170;2023-06-10T06:46:26;4.90;;;4.50;;
13408;SDS011;6775;49.574;11.170;2023-06-10T06:48:54;5.27;;;4.77;;
13408;SDS011;6775;49.574;11.170;2023-06-10T06:51:23;5.23;;;4.53;;
13408;SDS011;6775;49.574;11.170;2023-06-10T06:53:51;5.10;;;4.60;;
13408;SDS011;6775;49.574;11.170;2023-06-10T06:56:22;4.90;;;4.50;;
13408;SDS011;6775;49.574;11.170;2023-06-10T06:58:50;4.87;;;4.30;;
13408;SDS011;6775;49.574;11.170;2023-06-10T07:01:22;5.17;;;4.27;;
13408;SDS011;6775;49.574;11.170;2023-06-10T07:03:50;4.67;;;4.30;;
13408;SDS011;6775;49.574;11.170;2023-06-10T07:06:18;4.70;;;4.30;;
13408;SDS011;6775;49.574;11.170;2023-06-10T07:08:46;4.50;;;4.10;;
13408;SDS011;6775;49.574;11.170;2023-06-10T07:11:16;4.70;;;4.30;;
13408;SDS011;6775;49.574;11.170;2023-06-10T07:13:44;4.80;;;4.40;;
13408;SDS011;6775;49.574;11.170;2023-06-10T07:16:12;4.50;;;4.10;;
13408;SDS011;6775;49.574;11.170;2023-06-10T07:18:42;4.40;;;4.00;;
13408;SDS011;6775;49.574;11.170;2023-06-10T07:21:10;4.00;;;3.70;;
13408;SDS011;6775;49.574;11.170;2023-06-10T07:23:39;4.53;;;4.13;;
13408;SDS011;6775;49.574;11.170;2023-06-10T07:26:09;4.23;;;3.83;;
13408;SDS011;6775;49.574;11.170;2023-06-10T07:28:39;3.83;;;3.53;;
13408;SDS011;6775;49.574;11.170;2023-06-10T07:31:07;4.10;;;3.70;;
13408;SDS011;6775;49.574;11.170;2023-06-10T07:33:37;4.87;;;4.33;;
13408;SDS011;6775;49.574;11.170;2023-06-10T07:36:07;4.20;;;3.90;;
13408;SDS011;6775;49.574;11.170;2023-06-10T07:38:35;4.00;;;3.67;;
13408;SDS011;6775;49.574;11.170;2023-06-10T07:41:03;4.03;;;3.73;;
13408;SDS011;6775;49.574;11.170;2023-06-10T07:43:31;4.30;;;3.93;;
13408;SDS011;6775;49.574;11.170;2023-06-10T07:45:59;3.30;;;3.10;;
13408;SDS011;6775;49.574;11.170;2023-06-10T07:48:27;3.70;;;3.40;;
13408;SDS011;6775;49.574;11.170;2023-06-10T07:50:55;3.90;;;3.60;;
13408;SDS011;6775;49.574;11.170;2023-06-10T07:53:24;3.23;;;2.97;;
13408;SDS011;6775;49.574;11.170;2023-06-10T07:55:53;3.00;;;2.80;;
13408;SDS011;6775;49.574;11.170;2023-06-10T07:58:21;3.70;;;3.17;;
13408;SDS011;6775;49.574;11.170;2023-06-10T08:00:49;4.00;;;3.47;;
13408;SDS011;6775;49.574;11.170;2023-06-10T08:03:17;3.60;;;3.30;;
13408;SDS011;6775;49.574;11.170;2023-06-10T08:05:45;3.20;;;3.00;;
13408;SDS011;6775;49.574;11.170;2023-06-10T08:08:13;3.30;;;3.10;;
13408;SDS011;6775;49.574;11.170;2023-06-10T08:10:42;4.50;;;3.50;;
13408;SDS011;6775;49.574;11.170;2023-06-10T08:13:10;3.30;;;3.00;;
13408;SDS011;6775;49.574;11.170;2023-06-10T08:15:38;3.37;;;3.07;;
13408;SDS011;6775;49.574;11.170;2023-06-10T08:18:06;3.63;;;3.00;;
13408;SDS011;6775;49.574;11.170;2023-06-10T08:20:34;3.03;;;2.80;;
13408;SDS011;6775;49.574;11.170;2023-06-10T08:23:02;3.03;;;2.83;;
13408;SDS011;6775;49.574;11.170;2023-06-10T08:25:30;3.57;;;3.27;;
13408;SDS011;6775;49.574;11.170;2023-06-10T08:27:59;3.17;;;2.97;;
13408;SDS011;6775;49.574;11.170;2023-06-10T08:30:28;4.57;;;3.20;;
13408;SDS011;6775;49.574;11.170;2023-06-10T08:32:56;2.90;;;2.70;;
13408;SDS011;6775;49.574;11.170;2023-06-10T08:35:24;2.77;;;2.57;;
13408;SDS011;6775;49.574;11.170;2023-06-10T08:37:52;2.90;;;2.70;;
13408;SDS011;6775;49.574;11.170;2023-06-10T08:40:20;3.47;;;2.47;;
13408;SDS011;6775;49.574;11.170;2023-06-10T08:42:49;2.80;;;2.60;;
13408;SDS011;6775;49.574;11.170;2023-06-10T08:45:22;3.73;;;2.73;;
13408;SDS011;6775;49.574;11.170;2023-06-10T08:47:51;2.57;;;2.37;;
13408;SDS011;6775;49.574;11.170;2023-06-10T08:50:21;2.63;;;2.43;;
13408;SDS011;6775;49.574;11.170;2023-06-10T08:52:50;2.50;;;2.27;;
13408;SDS011;6775;49.574;11.170;2023-06-10T08:55:23;2.37;;;2.17;;
13408;SDS011;6775;49.574;11.170;2023-06-10T08:57:58;2.50;;;2.30;;
13408;SDS011;6775;49.574;11.170;2023-06-10T09:00:28;2.23;;;2.10;;
13408;SDS011;6775;49.574;11.170;2023-06-10T09:02:57;2.60;;;2.13;;
13408;SDS011;6775;49.574;11.170;2023-06-10T09:05:31;2.30;;;2.10;;
13408;SDS011;6775;49.574;11.170;2023-06-10T09:08:01;2.60;;;2.40;;
13408;SDS011;6775;49.574;11.170;2023-06-10T09:10:29;2.00;;;1.90;;
13408;SDS011;6775;49.574;11.170;2023-06-10T09:12:58;3.10;;;2.43;;
13408;SDS011;6775;49.574;11.170;2023-06-10T09:15:26;2.60;;;2.40;;
13408;SDS011;6775;49.574;11.170;2023-06-10T09:17:55;2.90;;;2.60;;
13408;SDS011;6775;49.574;11.170;2023-06-10T09:20:23;3.50;;;2.67;;
13408;SDS011;6775;49.574;11.170;2023-06-10T09:22:51;2.67;;;2.47;;
13408;SDS011;6775;49.574;11.170;2023-06-10T09:25:20;2.70;;;2.50;;
13408;SDS011;6775;49.574;11.170;2023-06-10T09:28:02;2.40;;;2.20;;
13408;SDS011;6775;49.574;11.170;2023-06-10T09:30:31;3.00;;;2.80;;
13408;SDS011;6775;49.574;11.170;2023-06-10T09:33:02;2.70;;;2.50;;
13408;SDS011;6775;49.574;11.170;2023-06-10T09:35:37;2.90;;;2.70;;
13408;SDS011;6775;49.574;11.170;2023-06-10T09:38:13;2.50;;;2.30;;
13408;SDS011;6775;49.574;11.170;2023-06-10T09:40:49;2.77;;;2.57;;
13408;SDS011;6775;49.574;11.170;2023-06-10T09:43:18;2.80;;;2.60;;
13408;SDS011;6775;49.574;11.170;2023-06-10T09:45:47;3.03;;;2.60;;
13408;SDS011;6775;49.574;11.170;2023-06-10T09:48:17;2.97;;;2.77;;
13408;SDS011;6775;49.574;11.170;2023-06-10T09:50:45;3.00;;;2.80;;
13408;SDS011;6775;49.574;11.170;2023-06-10T09:53:14;2.80;;;2.40;;
13408;SDS011;6775;49.574;11.170;2023-06-10T09:55:44;3.50;;;2.70;;
13408;SDS011;6775;49.574;11.170;2023-06-10T09:58:12;2.77;;;2.57;;
13408;SDS011;6775;49.574;11.170;2023-06-10T10:00:41;2.77;;;2.57;;
13408;SDS011;6775;49.574;11.170;2023-06-10T10:03:09;2.57;;;2.37;;
13408;SDS011;6775;49.574;11.170;2023-06-10T10:05:38;2.63;;;2.43;;
13408;SDS011;6775;49.574;11.170;2023-06-10T10:08:06;2.83;;;2.53;;
13408;SDS011;6775;49.574;11.170;2023-06-10T10:10:34;2.83;;;2.63;;
13408;SDS011;6775;49.574;11.170;2023-06-10T10:13:03;3.90;;;2.43;;
13408;SDS011;6775;49.574;11.170;2023-06-10T10:15:31;3.20;;;2.50;;
13408;SDS011;6775;49.574;11.170;2023-06-10T10:18:02;2.93;;;2.73;;
13408;SDS011;6775;49.574;11.170;2023-06-10T10:20:34;2.90;;;2.70;;
13408;SDS011;6775;49.574;11.170;2023-06-10T10:23:11;3.07;;;2.47;;
13408;SDS011;6775;49.574;11.170;2023-06-10T10:25:42;2.63;;;2.43;;
13408;SDS011;6775;49.574;11.170;2023-06-10T10:28:11;2.93;;;2.63;;
13408;SDS011;6775;49.574;11.170;2023-06-10T10:30:40;3.17;;;2.87;;
13408;SDS011;6775;49.574;11.170;2023-06-10T10:33:12;2.73;;;2.53;;
13408;SDS011;6775;49.574;11.170;2023-06-10T10:35:46;3.17;;;2.87;;
13408;SDS011;6775;49.574;11.170;2023-06-10T10:38:14;2.80;;;2.60;;
13408;SDS011;6775;49.574;11.170;2023-06-10T10:40:43;3.33;;;3.10;;
13408;SDS011;6775;49.574;11.170;2023-06-10T10:43:13;3.00;;;2.70;;
13408;SDS011;6775;49.574;11.170;2023-06-10T10:45:41;3.30;;;2.60;;
13408;SDS011;6775;49.574;11.170;2023-06-10T10:48:09;2.63;;;2.43;;
13408;SDS011;6775;49.574;11.170;2023-06-10T10:50:38;3.10;;;2.90;;
13408;SDS011;6775;49.574;11.170;2023-06-10T10:53:08;3.30;;;3.00;;
13408;SDS011;6775;49.574;11.170;2023-06-10T10:55:36;3.07;;;2.87;;
13408;SDS011;6775;49.574;11.170;2023-06-10T10:58:04;3.47;;;3.10;;
13408;SDS011;6775;49.574;11.170;2023-06-10T11:00:34;2.97;;;2.77;;
13408;SDS011;6775;49.574;11.170;2023-06-10T11:03:05;3.30;;;3.00;;
13408;SDS011;6775;49.574;11.170;2023-06-10T11:05:38;3.60;;;3.30;;
13408;SDS011;6775;49.574;11.170;2023-06-10T11:08:09;3.70;;;3.40;;
13408;SDS011;6775;49.574;11.170;2023-06-10T11:10:38;5.17;;;3.50;;
13408;SDS011;6775;49.574;11.170;2023-06-10T11:13:08;3.70;;;3.30;;
13408;SDS011;6775;49.574;11.170;2023-06-10T11:15:40;2.90;;;2.70;;
13408;SDS011;6775;49.574;11.170;2023-06-10T11:18:13;3.07;;;2.87;;
13408;SDS011;6775;49.574;11.170;2023-06-10T11:20:53;3.07;;;2.87;;
13408;SDS011;6775;49.574;11.170;2023-06-10T11:23:32;3.23;;;3.00;;
13408;SDS011;6775;49.574;11.170;2023-06-10T11:26:11;3.60;;;3.30;;
13408;SDS011;6775;49.574;11.170;2023-06-10T11:29:06;3.13;;;2.90;;
13408;SDS011;6775;49.574;11.170;2023-06-10T11:31:39;3.53;;;3.27;;
13408;SDS011;6775;49.574;11.170;2023-06-10T11:34:09;3.23;;;2.93;;
13408;SDS011;6775;49.574;11.170;2023-06-10T11:36:38;3.13;;;2.83;;
13408;SDS011;6775;49.574;11.170;2023-06-10T11:39:13;4.03;;;3.40;;
13408;SDS011;6775;49.574;11.170;2023-06-10T11:41:41;3.13;;;2.93;;
13408;SDS011;6775;49.574;11.170;2023-06-10T11:44:09;3.40;;;3.10;;
13408;SDS011;6775;49.574;11.170;2023-06-10T11:46:42;2.80;;;2.60;;
13408;SDS011;6775;49.574;11.170;2023-06-10T11:49:11;2.63;;;2.43;;
13408;SDS011;6775;49.574;11.170;2023-06-10T11:51:40;3.10;;;2.90;;
13408;SDS011;6775;49.574;11.170;2023-06-10T11:54:16;3.37;;;3.07;;
13408;SDS011;6775;49.574;11.170;2023-06-10T11:56:45;2.73;;;2.53;;
13408;SDS011;6775;49.574;11.170;2023-06-10T11:59:15;2.80;;;2.60;;
13408;SDS011;6775;49.574;11.170;2023-06-10T12:01:43;2.70;;;2.50;;
13408;SDS011;6775;49.574;11.170;2023-06-10T12:04:14;3.60;;;2.40;;
13408;SDS011;6775;49.574;11.170;2023-06-10T12:06:45;2.47;;;2.27;;
13408;SDS011;6775;49.574;11.170;2023-06-10T12:09:17;3.00;;;2.80;;
13408;SDS011;6775;49.574;11.170;2023-06-10T12:11:49;2.70;;;2.50;;
13408;SDS011;6775;49.574;11.170;2023-06-10T12:17:36;2.70;;;2.20;;
13408;SDS011;6775;49.574;11.170;2023-06-10T12:20:05;2.53;;;2.33;;
13408;SDS011;6775;49.574;11.170;2023-06-10T12:22:38;2.60;;;2.40;;
13408;SDS011;6775;49.574;11.170;2023-06-10T12:25:09;2.30;;;2.20;;
13408;SDS011;6775;49.574;11.170;2023-06-10T12:27:40;4.10;;;2.10;;
13408;SDS011;6775;49.574;11.170;2023-06-10T12:30:18;2.97;;;2.30;;
13408;SDS011;6775;49.574;11.170;2023-06-10T12:32:47;2.33;;;2.13;;
13408;SDS011;6775;49.574;11.170;2023-06-10T12:35:16;2.20;;;2.00;;
13408;SDS011;6775;49.574;11.170;2023-06-10T12:37:54;2.20;;;2.00;;
13408;SDS011;6775;49.574;11.170;2023-06-10T12:40:27;2.43;;;2.20;;
13408;SDS011;6775;49.574;11.170;2023-06-10T12:42:55;2.20;;;2.00;;
13408;SDS011;6775;49.574;11.170;2023-06-10T12:45:26;2.70;;;2.50;;
13408;SDS011;6775;49.574;11.170;2023-06-10T12:48:05;2.60;;;2.40;;
13408;SDS011;6775;49.574;11.170;2023-06-10T12:50:35;2.63;;;2.43;;
13408;SDS011;6775;49.574;11.170;2023-06-10T12:53:05;2.43;;;2.23;;
13408;SDS011;6775;49.574;11.170;2023-06-10T12:55:35;2.70;;;2.50;;
13408;SDS011;6775;49.574;11.170;2023-06-10T12:58:03;2.70;;;2.50;;
13408;SDS011;6775;49.574;11.170;2023-06-10T13:00:31;2.60;;;2.40;;
13408;SDS011;6775;49.574;11.170;2023-06-10T13:03:01;2.17;;;2.07;;
13408;SDS011;6775;49.574;11.170;2023-06-10T13:05:32;2.70;;;2.10;;
13408;SDS011;6775;49.574;11.170;2023-06-10T13:08:01;2.20;;;2.00;;
13408;SDS011;6775;49.574;11.170;2023-06-10T13:10:29;2.00;;;1.90;;
13408;SDS011;6775;49.574;11.170;2023-06-10T13:12:59;2.00;;;1.90;;
13408;SDS011;6775;49.574;11.170;2023-06-10T13:15:27;1.70;;;1.60;;
13408;SDS011;6775;49.574;11.170;2023-06-10T13:17:55;3.00;;;2.10;;
13408;SDS011;6775;49.574;11.170;2023-06-10T13:20:23;2.30;;;1.90;;
13408;SDS011;6775;49.574;11.170;2023-06-10T13:22:52;1.83;;;1.70;;
13408;SDS011;6775;49.574;11.170;2023-06-10T13:25:20;2.20;;;2.10;;
13408;SDS011;6775;49.574;11.170;2023-06-10T13:27:48;2.40;;;2.03;;
13408;SDS011;6775;49.574;11.170;2023-06-10T13:30:17;2.50;;;2.30;;
13408;SDS011;6775;49.574;11.170;2023-06-10T13:32:46;2.00;;;1.90;;
13408;SDS011;6775;49.574;11.170;2023-06-10T13:35:14;2.20;;;2.00;;
13408;SDS011;6775;49.574;11.170;2023-06-10T13:37:42;1.90;;;1.67;;
13408;SDS011;6775;49.574;11.170;2023-06-10T13:40:10;2.10;;;1.90;;
13408;SDS011;6775;49.574;11.170;2023-06-10T13:42:38;1.90;;;1.80;;
13408;SDS011;6775;49.574;11.170;2023-06-10T13:45:07;2.20;;;2.10;;
13408;SDS011;6775;49.574;11.170;2023-06-10T13:47:37;2.13;;;1.93;;
13408;SDS011;6775;49.574;11.170;2023-06-10T13:50:06;2.40;;;2.00;;
13408;SDS011;6775;49.574;11.170;2023-06-10T13:52:35;2.20;;;2.10;;
13408;SDS011;6775;49.574;11.170;2023-06-10T13:55:03;2.20;;;2.00;;
13408;SDS011;6775;49.574;11.170;2023-06-10T13:57:31;2.47;;;2.20;;
13408;SDS011;6775;49.574;11.170;2023-06-10T13:59:59;2.23;;;2.13;;
13408;SDS011;6775;49.574;11.170;2023-06-10T14:02:27;2.20;;;2.00;;
13408;SDS011;6775;49.574;11.170;2023-06-10T14:04:57;1.93;;;1.83;;
13408;SDS011;6775;49.574;11.170;2023-06-10T14:07:25;1.90;;;1.80;;
13408;SDS011;6775;49.574;11.170;2023-06-10T14:09:53;2.00;;;1.90;;
13408;SDS011;6775;49.574;11.170;2023-06-10T14:12:22;2.47;;;2.27;;
13408;SDS011;6775;49.574;11.170;2023-06-10T14:14:50;2.30;;;2.10;;
13408;SDS011;6775;49.574;11.170;2023-06-10T14:17:18;3.40;;;2.40;;
13408;SDS011;6775;49.574;11.170;2023-06-10T14:19:46;2.00;;;1.90;;
13408;SDS011;6775;49.574;11.170;2023-06-10T14:22:15;2.10;;;2.00;;
13408;SDS011;6775;49.574;11.170;2023-06-10T14:24:43;2.00;;;1.90;;
13408;SDS011;6775;49.574;11.170;2023-06-10T14:27:11;2.10;;;2.00;;
13408;SDS011;6775;49.574;11.170;2023-06-10T14:29:39;2.50;;;2.30;;
13408;SDS011;6775;49.574;11.170;2023-06-10T14:32:07;2.13;;;2.00;;
13408;SDS011;6775;49.574;11.170;2023-06-10T14:34:35;2.47;;;1.90;;
13408;SDS011;6775;49.574;11.170;2023-06-10T14:37:05;2.53;;;2.33;;
13408;SDS011;6775;49.574;11.170;2023-06-10T14:39:35;3.27;;;2.17;;
13408;SDS011;6775;49.574;11.170;2023-06-10T14:42:03;2.73;;;2.17;;
13408;SDS011;6775;49.574;11.170;2023-06-10T14:44:32;2.97;;;2.77;;
13408;SDS011;6775;49.574;11.170;2023-06-10T14:47:00;4.57;;;2.60;;
13408;SDS011;6775;49.574;11.170;2023-06-10T14:49:28;3.80;;;2.80;;
13408;SDS011;6775;49.574;11.170;2023-06-10T14:51:56;2.63;;;2.43;;
13408;SDS011;6775;49.574;11.170;2023-06-10T14:54:24;4.13;;;2.90;;
13408;SDS011;6775;49.574;11.170;2023-06-10T14:56:54;3.10;;;2.90;;
13408;SDS011;6775;49.574;11.170;2023-06-10T14:59:22;2.90;;;2.70;;
13408;SDS011;6775;49.574;11.170;2023-06-10T15:01:50;3.53;;;2.90;;
13408;SDS011;6775;49.574;11.170;2023-06-10T15:04:18;3.87;;;2.87;;